Pond Inlet, Canada
Current Conditions -  °F | °C
As of 3:00 AM on Monday 24 Nov 2014 (Local Time) from CYIO Reporting Station
Clear Clear  
Wind Chill: -11°   Ceiling: Unl
Heat Index: -11°   Visibility: 9mi
Dew Point: -15°   Wind: 0mph
Humidity: 84%   Direction: NA
Pressure: 29.38"   Gusts: NA
Location:  72.7°N, 78°W
Report Text: CYIO 240800Z AUTO 00000KT 9SM CLR M24/M26 A2938 RMK SLP958
Loading
Personal Weather Stations






























Interactive Weather Map New forecast layout! Learn more

10-Day Weather Forecast

Advertisements
Track Severe Weather on mobile